Time;durP1;ratioP1;P1;durP2;ratioP2;P2;SDS_P1;SDS_P2;PMS_P1;PMS_P2;Temp;Humidity;BMP_temperature;BMP_pressure;BME280_temperature;BME280_humidity;BME280_pressure;Samples;Min_cycle;Max_cycle;Signal;HPM_P1;HPM_P2
2022/04/20 00:01:58;;;;;;;2.30;2.10;;;10.70;95.50;;;;;;5109319;28;20226;-69
2022/04/20 00:04:26;;;;;;;3.17;2.23;;;10.70;95.50;;;;;;5109557;28;20660;-68
2022/04/20 00:06:52;;;;;;;2.03;1.87;;;10.70;95.70;;;;;;5109958;28;20266;-68
2022/04/20 00:09:19;;;;;;;2.37;1.90;;;10.70;95.70;;;;;;5109713;28;20263;-68
2022/04/20 00:11:46;;;;;;;2.07;1.90;;;10.70;95.70;;;;;;5110008;28;20266;-68
2022/04/20 00:14:13;;;;;;;2.10;1.90;;;10.70;95.70;;;;;;5109372;28;20577;-68
2022/04/20 00:16:40;;;;;;;3.33;1.67;;;10.70;95.80;;;;;;5109126;28;20194;-68
2022/04/20 00:19:07;;;;;;;2.10;1.90;;;10.70;95.70;;;;;;5109050;28;20615;-68
2022/04/20 00:21:35;;;;;;;3.67;2.03;;;10.70;95.70;;;;;;5109054;28;20264;-68
2022/04/20 00:24:01;;;;;;;2.00;1.77;;;10.70;95.60;;;;;;5109410;27;20262;-68
2022/04/20 00:26:28;;;;;;;2.20;2.10;;;10.70;95.50;;;;;;5109254;28;20247;-68
2022/04/20 00:28:54;;;;;;;2.07;1.87;;;10.70;95.50;;;;;;5109492;28;20237;-68
2022/04/20 00:31:21;;;;;;;1.90;1.80;;;10.50;95.40;;;;;;5108924;28;20233;-68
2022/04/20 00:33:48;;;;;;;2.00;1.70;;;10.50;95.90;;;;;;5108729;28;20550;-68
2022/04/20 00:36:14;;;;;;;2.03;1.93;;;10.50;95.60;;;;;;5108988;28;20281;-68
2022/04/20 00:38:42;;;;;;;2.77;1.90;;;10.50;95.70;;;;;;5109240;28;20206;-68
2022/04/20 00:41:12;;;;;;;3.10;1.90;;;10.60;95.60;;;;;;5108484;28;20741;-68
2022/04/20 00:43:39;;;;;;;2.67;1.77;;;10.40;95.70;;;;;;5108698;28;20700;-68
2022/04/20 00:46:09;;;;;;;2.30;2.20;;;10.50;95.70;;;;;;5108808;28;20247;-70
2022/04/20 00:48:38;;;;;;;4.37;1.67;;;10.50;95.80;;;;;;5108601;28;20232;-68
2022/04/20 00:51:10;;;;;;;3.10;1.70;;;10.50;96.20;;;;;;5108715;28;20210;-69
2022/04/20 00:53:37;;;;;;;2.27;2.07;;;10.50;95.90;;;;;;5109006;28;20267;-68
2022/04/20 00:56:12;;;;;;;2.27;1.63;;;10.50;96.00;;;;;;5108430;28;20721;-70
2022/04/20 00:58:40;;;;;;;1.93;1.80;;;10.50;96.00;;;;;;5108816;28;20620;-69
2022/04/20 01:01:10;;;;;;;2.47;1.80;;;10.50;96.10;;;;;;5108641;28;20322;-69
2022/04/20 01:03:37;;;;;;;2.10;1.63;;;10.50;96.20;;;;;;5108442;28;20238;-69
2022/04/20 01:06:11;;;;;;;2.13;1.93;;;10.50;96.20;;;;;;5108862;28;20252;-69
2022/04/20 01:08:37;;;;;;;3.10;2.00;;;10.50;96.20;;;;;;5108280;28;20191;-68
2022/04/20 01:11:12;;;;;;;2.00;1.90;;;10.50;96.30;;;;;;5108116;28;20761;-68
2022/04/20 01:13:38;;;;;;;2.20;2.00;;;10.40;96.50;;;;;;5108448;28;20214;-69
2022/04/20 01:16:11;;;;;;;5.37;1.87;;;10.40;97.10;;;;;;5108427;28;20202;-68
2022/04/20 01:18:43;;;;;;;2.47;2.27;;;10.40;97.10;;;;;;5108270;28;20642;-69
2022/04/20 01:21:11;;;;;;;2.03;1.80;;;10.40;97.20;;;;;;5108170;28;20234;-70
2022/04/20 01:23:38;;;;;;;2.20;2.00;;;10.40;97.20;;;;;;5108165;28;20699;-69
2022/04/20 01:26:10;;;;;;;2.03;1.80;;;10.40;97.30;;;;;;5107961;28;20245;-70
2022/04/20 01:28:38;;;;;;;2.57;2.23;;;10.40;97.40;;;;;;5108791;28;20243;-68
2022/04/20 01:31:08;;;;;;;2.30;2.10;;;10.30;97.40;;;;;;5108324;28;20239;-68
2022/04/20 01:33:35;;;;;;;2.20;2.00;;;10.30;97.60;;;;;;5108190;28;20211;-68
2022/04/20 01:36:01;;;;;;;2.30;2.10;;;10.30;97.70;;;;;;5107945;28;20271;-68
2022/04/20 01:38:29;;;;;;;2.83;2.03;;;10.30;97.70;;;;;;5108279;28;21089;-68
2022/04/20 01:40:56;;;;;;;2.40;2.17;;;10.30;97.80;;;;;;5108034;28;20206;-68
2022/04/20 01:43:22;;;;;;;2.43;2.00;;;10.30;97.90;;;;;;5107989;28;21113;-67
2022/04/20 01:45:49;;;;;;;3.97;2.10;;;10.30;97.90;;;;;;5108094;28;20286;-67
2022/04/20 01:48:16;;;;;;;3.63;2.27;;;10.30;97.90;;;;;;5107905;28;20202;-67
2022/04/20 01:53:24;;;;;;;3.03;2.23;;;10.30;98.10;;;;;;5107632;28;20254;-67
2022/04/20 01:55:52;;;;;;;3.03;2.37;;;10.30;98.30;;;;;;5108366;28;20594;-68
2022/04/20 01:58:18;;;;;;;4.73;2.20;;;10.30;98.50;;;;;;5107993;28;20205;-67
2022/04/20 02:00:45;;;;;;;3.03;2.07;;;10.30;98.50;;;;;;5107923;28;20244;-67
2022/04/20 02:03:11;;;;;;;3.10;2.30;;;10.30;98.60;;;;;;5107354;28;20221;-67
2022/04/20 02:05:38;;;;;;;2.17;1.97;;;10.20;98.60;;;;;;5108309;28;20209;-67
2022/04/20 02:08:05;;;;;;;2.40;2.10;;;10.30;98.70;;;;;;5108282;28;20202;-68
2022/04/20 02:10:31;;;;;;;3.13;1.90;;;10.20;98.70;;;;;;5108088;28;20206;-68
2022/04/20 02:12:59;;;;;;;2.53;1.93;;;10.20;98.70;;;;;;5107892;28;20607;-68
2022/04/20 02:15:27;;;;;;;3.03;2.17;;;10.20;98.70;;;;;;5107970;28;20663;-68
2022/04/20 02:17:54;;;;;;;4.70;2.40;;;10.20;98.80;;;;;;5107492;28;20916;-68
2022/04/20 02:20:21;;;;;;;3.60;2.30;;;10.10;98.90;;;;;;5107768;28;20202;-67
2022/04/20 02:22:47;;;;;;;2.17;1.97;;;10.10;99.00;;;;;;5101740;28;20238;-67
2022/04/20 02:25:14;;;;;;;3.70;1.80;;;10.10;99.00;;;;;;5111708;28;20206;-67
2022/04/20 02:27:40;;;;;;;2.50;2.10;;;10.10;99.00;;;;;;5111529;28;20603;-67
2022/04/20 02:30:10;;;;;;;2.23;1.93;;;10.10;99.10;;;;;;5111615;28;20206;-68
2022/04/20 02:32:36;;;;;;;3.67;2.20;;;10.00;99.20;;;;;;5111394;28;20387;-68
2022/04/20 02:35:03;;;;;;;2.40;2.20;;;10.00;99.30;;;;;;5111652;28;20222;-68
2022/04/20 02:37:30;;;;;;;2.83;2.20;;;10.00;99.40;;;;;;5111052;28;20255;-69
2022/04/20 02:39:57;;;;;;;3.20;2.13;;;9.90;99.40;;;;;;5111394;27;20255;-69
2022/04/20 02:42:23;;;;;;;3.47;2.20;;;9.90;99.60;;;;;;5111325;28;20206;-69
2022/04/20 02:44:50;;;;;;;3.07;2.20;;;9.80;99.70;;;;;;5111519;28;20202;-69
2022/04/20 02:47:19;;;;;;;2.40;2.17;;;9.80;99.90;;;;;;5110950;28;20214;-69
2022/04/20 02:49:45;;;;;;;3.53;2.60;;;9.80;99.90;;;;;;5111222;28;20612;-69
2022/04/20 02:52:12;;;;;;;3.80;2.40;;;9.80;99.90;;;;;;5111232;28;20210;-69
2022/04/20 02:54:38;;;;;;;2.47;2.20;;;9.80;99.90;;;;;;5110927;28;20194;-69
2022/04/20 02:57:05;;;;;;;2.90;2.40;;;9.90;99.90;;;;;;5110696;28;20995;-69
2022/04/20 02:59:32;;;;;;;3.87;2.40;;;9.80;99.90;;;;;;5111187;27;20198;-69
2022/04/20 03:01:58;;;;;;;2.70;2.27;;;9.90;99.90;;;;;;5110961;28;20252;-69
2022/04/20 03:04:26;;;;;;;2.50;2.30;;;9.90;99.90;;;;;;5110862;28;20641;-68
2022/04/20 03:06:53;;;;;;;3.47;2.60;;;9.90;99.90;;;;;;5110932;28;20210;-68
2022/04/20 03:09:19;;;;;;;3.80;2.53;;;9.90;99.90;;;;;;5110960;28;20231;-68
2022/04/20 03:11:46;;;;;;;3.50;2.40;;;9.90;99.90;;;;;;5110897;28;20198;-68
2022/04/20 03:14:13;;;;;;;2.60;2.20;;;9.90;99.90;;;;;;5110644;28;20210;-68
2022/04/20 03:16:40;;;;;;;4.30;2.63;;;9.80;99.90;;;;;;5110928;28;20209;-69
2022/04/20 03:19:06;;;;;;;5.33;2.43;;;9.80;99.90;;;;;;5103942;28;20236;-69
2022/04/20 03:21:34;;;;;;;3.97;2.40;;;9.60;99.90;;;;;;5096466;28;20317;-69
2022/04/20 03:24:01;;;;;;;2.77;2.40;;;9.70;99.90;;;;;;5108031;28;20300;-69
2022/04/20 03:26:27;;;;;;;3.50;2.37;;;9.70;99.90;;;;;;5108538;28;20225;-69
2022/04/20 03:28:54;;;;;;;2.77;2.57;;;9.70;99.90;;;;;;5107978;28;20271;-69
2022/04/20 03:31:21;;;;;;;5.03;2.60;;;9.70;99.90;;;;;;5107935;28;20214;-70
2022/04/20 03:33:47;;;;;;;2.63;2.43;;;9.70;99.90;;;;;;5107646;28;20206;-69
2022/04/20 03:36:14;;;;;;;2.53;2.30;;;9.70;99.90;;;;;;5107713;28;20715;-69
2022/04/20 03:38:43;;;;;;;3.47;2.53;;;9.80;99.90;;;;;;5108258;28;20301;-69
2022/04/20 03:41:12;;;;;;;2.93;2.73;;;9.80;99.90;;;;;;5107565;28;20206;-69
2022/04/20 03:43:39;;;;;;;2.77;2.47;;;9.80;99.90;;;;;;5107573;28;20263;-69
2022/04/20 03:46:12;;;;;;;4.10;2.93;;;9.70;99.90;;;;;;5107651;28;20210;-70
2022/04/20 03:48:38;;;;;;;3.70;3.00;;;9.70;99.90;;;;;;5107218;28;20735;-69
2022/04/20 03:51:11;;;;;;;4.10;2.93;;;9.80;99.90;;;;;;5107366;28;20206;-69
2022/04/20 03:53:38;;;;;;;5.23;2.87;;;9.80;99.90;;;;;;5107186;28;20203;-69
2022/04/20 03:56:15;;;;;;;3.20;3.00;;;9.80;99.90;;;;;;5107745;28;20198;-70
2022/04/20 03:58:41;;;;;;;7.17;3.43;;;9.80;99.90;;;;;;5107689;28;20236;-69
2022/04/20 04:01:11;;;;;;;4.30;3.07;;;9.80;99.90;;;;;;5108098;28;20202;-70
2022/04/20 04:03:38;;;;;;;3.43;3.10;;;9.80;99.90;;;;;;5107427;28;20226;-69
2022/04/20 04:06:11;;;;;;;4.20;3.27;;;9.80;99.90;;;;;;5107708;28;20210;-69
2022/04/20 04:08:37;;;;;;;5.23;3.30;;;9.80;99.90;;;;;;5107332;28;20210;-69
2022/04/20 04:11:11;;;;;;;4.50;3.10;;;9.80;99.90;;;;;;5107344;28;20237;-69
2022/04/20 04:13:39;;;;;;;3.90;3.30;;;9.70;99.90;;;;;;5107492;28;20218;-69
2022/04/20 04:16:12;;;;;;;5.50;3.13;;;9.80;99.90;;;;;;5107174;28;20680;-69
2022/04/20 04:18:38;;;;;;;5.20;3.60;;;9.80;99.90;;;;;;5106805;28;21034;-69
2022/04/20 04:21:11;;;;;;;4.90;3.57;;;9.90;99.90;;;;;;5107445;28;20258;-69
2022/04/20 04:23:38;;;;;;;3.40;3.10;;;9.90;99.90;;;;;;5107423;28;20313;-69
2022/04/20 04:26:10;;;;;;;6.47;3.70;;;9.90;99.90;;;;;;5107398;28;20255;-69
2022/04/20 04:28:40;;;;;;;6.70;3.50;;;9.90;99.90;;;;;;5107489;28;20283;-70
2022/04/20 04:31:14;;;;;;;4.07;3.70;;;9.90;99.90;;;;;;5101804;28;20808;-70
2022/04/20 04:33:41;;;;;;;10.37;4.37;;;10.00;99.90;;;;;;5106662;28;20205;-70
2022/04/20 04:36:13;;;;;;;4.83;4.10;;;9.90;99.90;;;;;;5106975;28;20230;-70
2022/04/20 04:38:40;;;;;;;10.43;4.30;;;9.90;99.90;;;;;;5106074;28;20716;-70
2022/04/20 04:41:13;;;;;;;4.20;3.80;;;10.00;99.90;;;;;;5107474;28;20210;-69
2022/04/20 04:43:41;;;;;;;4.47;4.03;;;10.00;99.90;;;;;;5111562;27;20226;-69
2022/04/20 04:48:58;;;;;;;3.80;3.40;;;10.00;99.90;;;;;;5119178;27;20214;-69
2022/04/20 04:51:24;;;;;;;5.03;3.67;;;9.90;99.90;;;;;;5120447;27;20262;-69
2022/04/20 04:53:51;;;;;;;5.17;3.60;;;9.90;99.90;;;;;;5114770;27;20198;-70
2022/04/20 04:56:17;;;;;;;5.20;4.03;;;10.00;99.90;;;;;;5115802;27;20201;-69
2022/04/20 04:58:45;;;;;;;6.13;4.10;;;10.00;99.90;;;;;;5111012;27;20194;-70
2022/04/20 05:01:12;;;;;;;4.50;3.80;;;10.00;99.90;;;;;;5110328;27;20236;-69
2022/04/20 05:03:39;;;;;;;3.70;3.40;;;10.00;99.90;;;;;;5117229;27;20232;-69
2022/04/20 05:06:16;;;;;;;4.10;3.43;;;10.10;99.90;;;;;;5117090;27;20247;-69
2022/04/20 05:08:42;;;;;;;4.83;3.80;;;10.10;99.90;;;;;;5111410;27;21037;-69
2022/04/20 05:11:12;;;;;;;13.27;3.90;;;10.10;99.90;;;;;;5119018;27;20201;-69
2022/04/20 05:13:39;;;;;;;5.97;3.23;;;10.10;99.90;;;;;;5116151;27;20198;-69
2022/04/20 05:16:14;;;;;;;4.43;3.43;;;10.20;99.90;;;;;;5116047;27;20617;-69
2022/04/20 05:18:40;;;;;;;4.93;3.60;;;10.20;99.90;;;;;;5112713;27;20235;-69
2022/04/20 05:21:13;;;;;;;4.37;3.77;;;10.20;99.90;;;;;;5117523;27;20229;-69
2022/04/20 05:23:40;;;;;;;4.17;3.50;;;10.30;99.90;;;;;;5109209;27;20218;-70
2022/04/20 05:26:12;;;;;;;3.43;3.13;;;10.30;99.90;;;;;;5113364;27;20317;-69
2022/04/20 05:28:39;;;;;;;6.70;3.60;;;10.30;99.90;;;;;;5112193;27;20221;-69
2022/04/20 05:31:14;;;;;;;6.27;3.90;;;10.40;99.90;;;;;;5115030;27;20254;-69
2022/04/20 05:33:41;;;;;;;4.87;3.60;;;10.40;99.90;;;;;;5117854;27;20198;-70
2022/04/20 05:36:11;;;;;;;4.30;3.90;;;10.40;99.90;;;;;;5115617;27;20221;-70
2022/04/20 05:41:41;;;;;;;5.87;3.27;;;10.30;99.90;;;;;;5114582;28;20675;-69
2022/04/20 05:44:08;;;;;;;4.80;3.90;;;10.30;99.90;;;;;;5115364;28;20219;-69
2022/04/20 05:46:36;;;;;;;4.13;3.73;;;10.30;99.90;;;;;;5113940;28;20201;-69
2022/04/20 05:49:03;;;;;;;3.77;3.43;;;10.30;99.90;;;;;;5112076;28;20258;-69
2022/04/20 05:51:30;;;;;;;3.93;3.63;;;10.30;99.90;;;;;;5107355;28;20209;-69
2022/04/20 05:53:56;;;;;;;5.73;3.70;;;10.30;99.90;;;;;;5107531;28;20198;-68
2022/04/20 05:56:23;;;;;;;4.00;3.67;;;10.30;99.90;;;;;;5111136;28;20202;-68
2022/04/20 05:58:52;;;;;;;4.23;3.80;;;10.30;99.90;;;;;;5111529;28;20717;-68
2022/04/20 06:01:19;;;;;;;4.27;3.87;;;10.20;99.90;;;;;;5110987;28;20202;-69
2022/04/20 06:03:47;;;;;;;6.20;4.03;;;10.10;99.90;;;;;;5111346;28;20222;-68
2022/04/20 06:06:14;;;;;;;4.20;3.90;;;10.00;99.90;;;;;;5111270;28;20198;-69
2022/04/20 06:08:41;;;;;;;7.47;3.87;;;10.00;99.90;;;;;;5111791;28;20660;-69
2022/04/20 06:11:13;;;;;;;5.40;3.90;;;10.00;99.90;;;;;;5111910;28;20348;-68
2022/04/20 06:13:40;;;;;;;4.03;3.63;;;10.10;99.90;;;;;;5111733;28;20217;-68
2022/04/20 06:16:13;;;;;;;4.53;3.93;;;10.20;99.90;;;;;;5111050;28;20263;-69
2022/04/20 06:18:39;;;;;;;4.63;3.40;;;10.20;99.90;;;;;;5111244;28;20217;-69
2022/04/20 06:21:17;;;;;;;4.63;3.77;;;10.20;99.90;;;;;;5111401;28;20290;-69
2022/04/20 06:23:43;;;;;;;10.00;4.47;;;10.10;99.90;;;;;;5110924;28;20331;-69
2022/04/20 06:26:13;;;;;;;5.07;3.90;;;10.30;99.90;;;;;;5111203;28;20234;-68
2022/04/20 06:28:39;;;;;;;4.57;4.20;;;10.30;99.90;;;;;;5111561;27;20206;-68
2022/04/20 06:31:12;;;;;;;6.73;4.27;;;10.20;99.90;;;;;;5111353;28;20210;-68
2022/04/20 06:33:39;;;;;;;5.70;3.57;;;10.30;99.90;;;;;;5111044;28;20202;-69
2022/04/20 06:36:17;;;;;;;6.00;3.70;;;10.40;99.90;;;;;;5111340;28;20222;-69
2022/04/20 06:38:44;;;;;;;4.37;3.77;;;10.30;99.90;;;;;;5110618;28;20194;-69
2022/04/20 06:41:13;;;;;;;5.87;3.80;;;10.20;99.90;;;;;;5110238;28;20224;-69
2022/04/20 06:43:40;;;;;;;3.90;3.40;;;10.30;99.90;;;;;;5111543;28;20213;-68
2022/04/20 06:46:13;;;;;;;4.90;3.70;;;10.30;99.90;;;;;;5111257;28;20788;-68
2022/04/20 06:48:39;;;;;;;3.73;3.43;;;10.30;99.90;;;;;;5110975;28;20205;-68
2022/04/20 06:51:12;;;;;;;4.87;4.20;;;10.40;99.90;;;;;;5106537;28;20206;-68
2022/04/20 06:59:09;;;;;;;7.77;4.10;;;10.50;99.90;;;;;;5090996;28;20240;-68
2022/04/20 07:01:36;;;;;;;6.40;4.50;;;10.60;99.90;;;;;;5111146;28;20206;-68
2022/04/20 07:04:02;;;;;;;5.47;3.57;;;10.50;99.90;;;;;;5110855;28;20237;-68
2022/04/20 07:06:29;;;;;;;4.97;3.70;;;10.60;99.90;;;;;;5110297;27;20255;-68
2022/04/20 07:08:57;;;;;;;4.17;3.50;;;10.70;99.90;;;;;;5110533;28;20559;-68
2022/04/20 07:11:23;;;;;;;4.53;3.90;;;10.80;99.90;;;;;;5111040;28;20202;-68
2022/04/20 07:13:51;;;;;;;3.37;3.10;;;10.90;99.90;;;;;;5110625;27;20205;-69
2022/04/20 07:16:17;;;;;;;6.13;3.20;;;10.90;99.90;;;;;;5110339;28;20294;-69
2022/04/20 07:18:44;;;;;;;3.37;3.10;;;11.00;99.90;;;;;;5109982;28;20233;-69
2022/04/20 07:21:14;;;;;;;3.37;3.07;;;11.10;99.90;;;;;;5110043;28;20298;-69
2022/04/20 07:23:41;;;;;;;3.37;3.07;;;11.10;99.90;;;;;;5110076;28;20259;-68
2022/04/20 07:26:15;;;;;;;3.37;2.90;;;11.10;99.90;;;;;;5110286;28;20194;-69
2022/04/20 07:28:41;;;;;;;3.43;2.60;;;11.20;99.90;;;;;;5110112;28;20208;-69
2022/04/20 07:31:11;;;;;;;3.33;2.93;;;11.20;99.90;;;;;;5110265;28;20198;-69
2022/04/20 07:33:38;;;;;;;3.13;2.93;;;11.30;99.90;;;;;;5110322;28;20210;-68
2022/04/20 07:36:14;;;;;;;82.47;8.37;;;11.40;99.90;;;;;;5109274;28;20592;-69
2022/04/20 07:38:41;;;;;;;34.60;5.73;;;11.50;99.90;;;;;;5109674;28;20784;-69
2022/04/20 07:41:15;;;;;;;65.63;7.03;;;11.50;99.90;;;;;;5109946;28;20194;-69
2022/04/20 07:43:42;;;;;;;29.07;4.20;;;11.40;99.90;;;;;;5108921;28;20202;-69
2022/04/20 07:46:17;;;;;;;5.03;2.67;;;11.50;99.90;;;;;;5096201;28;20210;-68
2022/04/20 07:48:44;;;;;;;11.10;9.27;;;11.50;99.90;;;;;;5100396;28;20198;-68
2022/04/20 07:51:14;;;;;;;4.53;3.57;;;11.60;99.90;;;;;;5108905;28;20223;-69
2022/04/20 07:53:41;;;;;;;3.67;3.17;;;11.50;99.90;;;;;;5109384;28;20198;-68
2022/04/20 07:56:15;;;;;;;2.93;2.60;;;11.50;99.90;;;;;;5108991;28;20251;-68
2022/04/20 07:58:42;;;;;;;3.57;2.67;;;11.60;99.90;;;;;;5109031;28;20198;-68
2022/04/20 08:01:11;;;;;;;2.70;2.50;;;11.60;99.90;;;;;;5105779;28;20247;-69
2022/04/20 08:03:38;;;;;;;2.37;2.20;;;11.70;99.90;;;;;;5108939;28;20278;-68
2022/04/20 08:06:12;;;;;;;3.00;2.40;;;11.70;99.90;;;;;;5108672;28;20222;-69
2022/04/20 08:08:38;;;;;;;2.40;2.30;;;11.70;99.90;;;;;;5108751;28;20209;-68
2022/04/20 08:11:17;;;;;;;2.73;2.53;;;11.80;99.90;;;;;;5105916;28;20569;-68
2022/04/20 08:16:29;;;;;;;3.03;2.80;;;11.90;99.90;;;;;;5108198;28;20213;-69
2022/04/20 08:18:55;;;;;;;4.67;2.50;;;11.90;99.90;;;;;;5108593;28;20206;-68
2022/04/20 08:21:22;;;;;;;4.73;2.90;;;12.10;99.90;;;;;;5108746;27;20237;-69
2022/04/20 08:23:49;;;;;;;2.60;2.40;;;12.20;99.90;;;;;;5108828;28;20811;-70
2022/04/20 08:26:17;;;;;;;2.47;2.37;;;12.20;99.50;;;;;;5108736;28;20707;-68
2022/04/20 08:28:43;;;;;;;2.70;2.33;;;12.30;99.40;;;;;;5109279;28;20240;-68
2022/04/20 08:31:16;;;;;;;3.30;2.40;;;12.40;99.30;;;;;;5108597;28;20198;-68
2022/04/20 08:33:43;;;;;;;2.83;2.63;;;12.40;99.10;;;;;;5108180;28;20252;-68
2022/04/20 08:36:13;;;;;;;4.90;2.00;;;8.20;98.00;;;;;;5108817;28;20210;-68
2022/04/20 08:38:40;;;;;;;2.40;2.17;;;12.50;98.60;;;;;;5108799;28;20217;-69
2022/04/20 08:41:15;;;;;;;2.40;2.20;;;12.60;98.10;;;;;;5098301;28;20259;-68
2022/04/20 08:43:43;;;;;;;2.73;1.90;;;12.60;96.90;;;;;;5108803;28;20209;-68
2022/04/20 08:46:17;;;;;;;11.27;2.23;;;12.60;96.70;;;;;;5107497;28;20250;-68
2022/04/20 08:48:44;;;;;;;3.73;1.97;;;12.60;96.60;;;;;;5103146;28;20197;-68
2022/04/20 08:51:19;;;;;;;12.53;2.53;;;12.60;96.40;;;;;;5112462;27;20198;-68
2022/04/20 08:53:46;;;;;;;30.80;3.97;;;12.70;96.50;;;;;;5116014;27;20610;-68
2022/04/20 08:59:05;;;;;;;4.73;1.90;;;12.70;96.70;;;;;;5111264;27;20660;-69
2022/04/20 09:01:31;;;;;;;2.87;2.00;;;12.80;96.20;;;;;;5116867;27;20239;-68
2022/04/20 09:04:00;;;;;;;2.20;1.70;;;12.80;96.20;;;;;;5120703;27;20429;-69
2022/04/20 09:06:27;;;;;;;4.07;2.10;;;12.90;96.30;;;;;;5115590;27;20294;-69
2022/04/20 09:08:53;;;;;;;1.93;1.70;;;12.90;96.50;;;;;;5116105;27;21659;-69
2022/04/20 09:11:21;;;;;;;3.20;2.00;;;12.90;96.30;;;;;;5116177;27;20220;-68
2022/04/20 09:13:48;;;;;;;2.10;1.50;;;12.90;96.40;;;;;;5119169;27;20248;-68
2022/04/20 09:16:22;;;;;;;2.83;1.80;;;12.90;96.00;;;;;;5110036;27;20210;-68
2022/04/20 09:18:51;;;;;;;1.90;1.80;;;12.90;96.10;;;;;;5107261;28;20244;-68
2022/04/20 09:21:20;;;;;;;8.40;2.63;;;12.90;96.40;;;;;;5107906;28;20238;-69
2022/04/20 09:23:47;;;;;;;13.40;3.17;;;12.90;96.50;;;;;;5107402;28;20206;-69
2022/04/20 09:26:17;;;;;;;4.83;1.63;;;12.80;96.50;;;;;;5107289;28;20226;-68
2022/04/20 09:29:04;;;;;;;2.50;1.77;;;12.80;96.70;;;;;;5107060;28;20667;-69
2022/04/20 09:31:42;;;;;;;6.10;2.13;;;12.80;96.90;;;;;;5106938;28;20247;-70
2022/04/20 09:34:09;;;;;;;2.67;2.13;;;12.80;97.40;;;;;;5114849;27;20278;-69
2022/04/20 09:36:45;;;;;;;3.53;2.20;;;12.60;97.90;;;;;;5115948;28;20202;-69
2022/04/20 09:39:13;;;;;;;2.67;1.60;;;12.60;98.60;;;;;;5115583;28;20689;-69
2022/04/20 09:41:56;;;;;;;3.90;2.07;;;12.50;98.40;;;;;;5111402;28;20206;-69
2022/04/20 09:44:23;;;;;;;4.30;1.97;;;12.40;98.90;;;;;;5118493;28;20197;-69
2022/04/20 09:49:38;;;;;;;1.97;1.70;;;12.30;99.90;;;;;;5120224;28;20334;-69
2022/04/20 09:52:10;;;;;;;1.87;1.77;;;12.40;99.90;;;;;;5114889;28;20193;-69
2022/04/20 09:54:37;;;;;;;4.83;2.00;;;12.40;99.90;;;;;;5115860;28;20198;-69
2022/04/20 09:57:10;;;;;;;7.37;2.00;;;12.30;99.90;;;;;;5117288;28;20208;-69
2022/04/20 09:59:37;;;;;;;1.90;1.80;;;12.40;99.90;;;;;;5118105;28;20200;-69
2022/04/20 10:02:12;;;;;;;6.03;2.10;;;12.50;99.90;;;;;;5113417;28;20222;-69
2022/04/20 10:04:41;;;;;;;1.97;1.83;;;12.50;99.90;;;;;;5112769;28;20640;-69
2022/04/20 10:07:08;;;;;;;3.67;2.00;;;12.50;99.90;;;;;;5114770;28;20205;-69
2022/04/20 10:09:35;;;;;;;1.90;1.80;;;12.50;99.90;;;;;;5115265;28;20216;-69
2022/04/20 10:12:02;;;;;;;3.33;2.07;;;12.40;99.90;;;;;;5114689;28;20256;-69
2022/04/20 10:17:22;;;;;;;2.70;1.97;;;12.40;99.70;;;;;;5108668;28;20377;-69
2022/04/20 10:19:49;;;;;;;4.97;1.93;;;12.50;99.90;;;;;;5112062;28;20243;-69
2022/04/20 10:22:19;;;;;;;2.30;2.10;;;12.50;99.90;;;;;;5113663;28;20230;-69
2022/04/20 10:24:47;;;;;;;2.80;2.57;;;12.50;99.60;;;;;;5116576;28;20194;-69
2022/04/20 10:27:19;;;;;;;2.37;2.17;;;12.50;99.90;;;;;;5116854;28;21071;-69
2022/04/20 10:29:52;;;;;;;3.10;2.43;;;12.60;99.90;;;;;;5113959;28;20216;-69
2022/04/20 10:32:24;;;;;;;3.03;2.70;;;12.70;99.90;;;;;;5112628;28;20256;-69
2022/04/20 10:34:51;;;;;;;8.43;2.43;;;12.80;99.50;;;;;;5113578;27;20214;-69
2022/04/20 10:37:22;;;;;;;4.37;2.27;;;12.80;99.80;;;;;;5110076;28;20259;-69
2022/04/20 10:39:48;;;;;;;2.73;2.37;;;12.90;99.90;;;;;;5116750;28;20710;-69
2022/04/20 10:42:23;;;;;;;2.70;2.50;;;13.00;99.90;;;;;;5116354;27;20201;-69
2022/04/20 10:44:59;;;;;;;2.70;2.10;;;13.00;99.70;;;;;;5120793;27;20204;-69
2022/04/20 10:47:29;;;;;;;2.60;2.40;;;12.70;99.80;;;;;;5116331;27;20281;-69
2022/04/20 10:50:16;;;;;;;7.83;2.43;;;12.70;99.90;;;;;;5115083;27;20957;-69
2022/04/20 10:52:47;;;;;;;3.80;1.70;;;12.90;99.90;;;;;;5113976;27;20254;-69
2022/04/20 10:55:15;;;;;;;2.80;1.97;;;12.80;99.90;;;;;;5118253;27;20273;-69
2022/04/20 10:57:43;;;;;;;2.10;1.90;;;12.80;99.90;;;;;;5118232;27;20220;-69
2022/04/20 11:00:34;;;;;;;1.83;1.73;;;12.80;99.90;;;;;;5126008;27;20258;-69
2022/04/20 11:03:06;;;;;;;2.20;2.10;;;12.70;99.90;;;;;;5113675;27;20220;-69
2022/04/20 11:05:49;;;;;;;2.50;2.10;;;12.60;99.90;;;;;;5114638;27;20578;-69
2022/04/20 11:08:16;;;;;;;2.07;1.90;;;12.60;99.90;;;;;;5109488;27;20202;-69
2022/04/20 11:18:38;;;;;;;3.77;1.93;;;12.60;99.90;;;;;;5111804;27;20208;-69
2022/04/20 11:19:08;;;;;;;1.93;1.70;;;12.50;99.90;;;;;;5124030;27;20627;-69
2022/04/20 11:21:36;;;;;;;1.90;1.60;;;12.50;99.90;;;;;;5120199;27;20229;-68
2022/04/20 11:24:06;;;;;;;2.20;2.00;;;12.50;99.90;;;;;;5120174;27;20210;-69
2022/04/20 11:26:35;;;;;;;1.70;1.60;;;12.60;99.90;;;;;;5117730;27;20222;-69
2022/04/20 11:29:08;;;;;;;2.60;1.80;;;12.60;99.90;;;;;;5112559;27;20195;-69
2022/04/20 11:31:37;;;;;;;1.77;1.67;;;12.50;99.90;;;;;;5114459;27;20187;-69
2022/04/20 11:34:05;;;;;;;2.10;1.90;;;12.60;99.90;;;;;;5113160;27;20655;-69
2022/04/20 11:36:33;;;;;;;3.07;2.00;;;12.60;99.90;;;;;;5111273;27;20241;-69
2022/04/20 11:39:01;;;;;;;2.20;2.00;;;12.60;99.90;;;;;;5109782;28;20210;-69
2022/04/20 11:41:28;;;;;;;1.80;1.70;;;12.60;99.90;;;;;;5109343;28;20262;-69
2022/04/20 11:43:55;;;;;;;1.83;1.50;;;12.70;99.90;;;;;;5109260;28;20237;-69
2022/04/20 11:46:22;;;;;;;1.67;1.57;;;12.80;99.90;;;;;;5108620;28;20222;-69
2022/04/20 11:48:54;;;;;;;2.63;1.60;;;12.90;99.90;;;;;;5109381;28;20232;-69
2022/04/20 11:51:23;;;;;;;1.90;1.80;;;13.00;99.90;;;;;;5109022;28;20710;-69
2022/04/20 11:53:52;;;;;;;1.97;1.87;;;13.00;99.90;;;;;;5109040;28;20234;-68
2022/04/20 11:56:32;;;;;;;1.30;1.30;;;12.90;99.90;;;;;;5117211;27;20201;-69
2022/04/20 11:58:59;;;;;;;1.77;1.67;;;12.80;99.90;;;;;;5119349;27;20191;-69
2022/04/20 12:01:26;;;;;;;10.43;2.57;;;12.80;99.90;;;;;;5118719;27;20209;-70
2022/04/20 12:03:54;;;;;;;2.90;1.60;;;12.80;99.90;;;;;;5118017;27;20267;-69
2022/04/20 12:06:24;;;;;;;1.80;1.70;;;12.90;99.90;;;;;;5116751;27;20699;-69
2022/04/20 12:08:54;;;;;;;2.87;1.77;;;12.80;99.90;;;;;;5119871;27;20187;-69
2022/04/20 12:11:21;;;;;;;2.07;1.50;;;12.80;99.90;;;;;;5114466;27;20194;-69
2022/04/20 12:13:54;;;;;;;3.03;2.20;;;13.00;99.90;;;;;;5118887;27;20193;-69
2022/04/20 12:16:23;;;;;;;3.23;1.87;;;13.20;99.90;;;;;;5118293;27;20228;-69
2022/04/20 12:18:50;;;;;;;1.90;1.60;;;13.30;99.90;;;;;;5108076;28;20564;-69
2022/04/20 12:21:35;;;;;;;2.10;1.90;;;13.30;99.70;;;;;;5108949;28;20238;-69
2022/04/20 12:24:04;;;;;;;2.10;1.90;;;13.40;99.30;;;;;;5108458;28;20209;-69
2022/04/20 12:26:31;;;;;;;2.03;1.80;;;13.40;99.40;;;;;;5109434;28;20225;-69
2022/04/20 12:28:59;;;;;;;2.00;1.63;;;13.50;99.50;;;;;;5106348;28;20202;-69
2022/04/20 12:31:26;;;;;;;2.93;2.40;;;13.50;99.10;;;;;;5107659;28;20198;-69
2022/04/20 12:34:01;;;;;;;1.93;1.83;;;13.40;99.00;;;;;;5107615;28;20218;-69
2022/04/20 12:36:29;;;;;;;3.10;2.07;;;13.10;98.80;;;;;;5107556;28;20197;-69
2022/04/20 12:38:56;;;;;;;4.40;1.93;;;13.20;99.40;;;;;;5106747;28;20649;-69
2022/04/20 12:41:41;;;;;;;20.73;3.37;;;13.40;99.30;;;;;;5106705;28;20216;-69
2022/04/20 12:44:46;;;;;;;2.00;1.80;;;13.70;99.50;;;;;;5106589;28;20196;-69
2022/04/20 12:47:39;;;;;;;2.70;2.20;;;14.20;99.20;;;;;;5106348;28;20321;-69
2022/04/20 12:50:25;;;;;;;2.43;1.63;;;14.50;98.60;;;;;;5106774;28;20210;-69
2022/04/20 12:52:59;;;;;;;3.63;2.00;;;14.60;98.30;;;;;;5105362;28;20284;-69
2022/04/20 13:04:13;;;;;;;3.67;2.23;;;14.80;97.60;;;;;;5107155;28;20646;-69
2022/04/20 13:06:40;;;;;;;2.40;2.20;;;14.60;98.20;;;;;;5108626;28;20596;-69
2022/04/20 13:09:07;;;;;;;2.83;2.30;;;14.50;98.00;;;;;;5108348;28;20213;-69
2022/04/20 13:11:34;;;;;;;4.33;2.47;;;14.50;98.30;;;;;;5108690;28;20251;-69
2022/04/20 13:14:02;;;;;;;2.33;2.13;;;14.30;97.80;;;;;;5108419;28;20220;-69
2022/04/20 13:16:29;;;;;;;2.17;2.07;;;14.10;97.80;;;;;;5108205;28;20210;-69
2022/04/20 13:18:56;;;;;;;2.50;2.07;;;14.00;98.00;;;;;;5107926;28;20247;-69
2022/04/20 13:21:24;;;;;;;2.40;2.20;;;14.00;98.50;;;;;;5108029;28;20237;-69
2022/04/20 13:23:52;;;;;;;2.60;2.00;;;14.00;98.60;;;;;;5108290;28;20216;-69
2022/04/20 13:29:12;;;;;;;2.77;2.00;;;14.00;98.10;;;;;;5108243;28;20217;-69
2022/04/20 13:31:39;;;;;;;2.90;2.13;;;13.90;98.20;;;;;;5108159;28;20300;-69
2022/04/20 13:34:06;;;;;;;1.80;1.67;;;14.00;98.30;;;;;;5108286;28;20222;-69
2022/04/20 13:36:32;;;;;;;1.90;1.80;;;13.90;98.40;;;;;;5108426;28;20202;-69
2022/04/20 13:38:59;;;;;;;2.07;1.70;;;13.90;98.10;;;;;;5108291;28;20263;-69
2022/04/20 13:41:25;;;;;;;3.23;2.73;;;13.90;98.20;;;;;;5107983;28;20210;-69